Time;durP1;ratioP1;P1;durP2;ratioP2;P2;SDS_P1;SDS_P2;PMS_P1;PMS_P2;Temp;Humidity;BMP_temperature;BMP_pressure;BME280_temperature;BME280_humidity;BME280_pressure;Samples;Min_cycle;Max_cycle;Signal;HPM_P1;HPM_P2
2023/05/16 00:00:34;;;;;;;10.05;1.23;;;;;;;;;;6306982;22;20012;-84
2023/05/16 00:03:01;;;;;;;14.80;1.00;;;;;;;;;;6281068;22;20099;-83
2023/05/16 00:05:27;;;;;;;13.30;1.35;;;;;;;;;;6281393;22;20038;-84
2023/05/16 00:07:54;;;;;;;11.05;1.00;;;;;;;;;;6306812;22;20334;-83
2023/05/16 00:10:20;;;;;;;12.30;1.48;;;;;;;;;;6281294;22;20066;-84
2023/05/16 00:12:47;;;;;;;9.98;1.50;;;;;;;;;;6306516;22;20030;-83
2023/05/16 00:15:13;;;;;;;11.95;1.33;;;;;;;;;;6281207;22;20015;-84
2023/05/16 00:17:39;;;;;;;12.73;1.75;;;;;;;;;;6307768;22;20030;-83
2023/05/16 00:20:13;;;;;;;13.38;1.65;;;;;;;;;;6281113;22;20026;-84
2023/05/16 00:22:39;;;;;;;10.80;1.17;;;;;;;;;;6307801;22;20020;-84
2023/05/16 00:25:05;;;;;;;14.25;1.48;;;;;;;;;;6306675;22;20015;-83
2023/05/16 00:27:33;;;;;;;11.30;1.48;;;;;;;;;;6280766;22;20011;-84
2023/05/16 00:30:00;;;;;;;13.75;1.33;;;;;;;;;;6306722;22;20019;-84
2023/05/16 00:32:26;;;;;;;13.70;1.38;;;;;;;;;;6281869;22;20027;-84
2023/05/16 00:34:52;;;;;;;12.00;1.60;;;;;;;;;;6281098;22;20446;-84
2023/05/16 00:37:18;;;;;;;12.95;1.80;;;;;;;;;;6281013;22;20019;-84
2023/05/16 00:39:44;;;;;;;11.85;1.30;;;;;;;;;;6281051;22;20070;-84
2023/05/16 00:42:10;;;;;;;14.10;1.63;;;;;;;;;;6280999;22;20019;-84
2023/05/16 00:44:36;;;;;;;9.85;1.27;;;;;;;;;;6307592;22;20012;-84
2023/05/16 00:47:03;;;;;;;13.30;1.85;;;;;;;;;;6308030;22;20023;-84
2023/05/16 00:49:29;;;;;;;13.25;1.70;;;;;;;;;;6306489;22;20393;-84
2023/05/16 00:51:56;;;;;;;11.00;1.15;;;;;;;;;;6306952;22;20023;-84
2023/05/16 00:54:25;;;;;;;10.57;1.00;;;;;;;;;;6306595;22;20111;-84
2023/05/16 00:56:51;;;;;;;13.13;1.75;;;;;;;;;;6280729;22;20065;-84
2023/05/16 00:59:18;;;;;;;10.65;1.88;;;;;;;;;;6306231;22;20018;-84
2023/05/16 01:01:49;;;;;;;10.93;1.13;;;;;;;;;;6280831;22;20328;-84
2023/05/16 01:04:15;;;;;;;11.77;1.30;;;;;;;;;;6306434;22;20026;-84
2023/05/16 01:06:41;;;;;;;9.80;1.10;;;;;;;;;;6306514;22;20028;-84
2023/05/16 01:09:08;;;;;;;12.43;1.27;;;;;;;;;;6306407;22;20022;-83
2023/05/16 01:11:50;;;;;;;12.80;1.10;;;;;;;;;;6281026;22;20019;-84
2023/05/16 01:14:35;;;;;;;11.07;1.15;;;;;;;;;;6307565;22;20312;-84
2023/05/16 01:17:04;;;;;;;9.68;1.00;;;;;;;;;;6306127;22;20058;-84
2023/05/16 01:19:50;;;;;;;11.68;1.50;;;;;;;;;;6280230;22;20019;-83
2023/05/16 01:22:23;;;;;;;11.95;1.10;;;;;;;;;;6306428;22;20015;-84
2023/05/16 01:24:49;;;;;;;13.38;0.98;;;;;;;;;;6306840;22;20086;-84
2023/05/16 01:27:16;;;;;;;15.07;1.55;;;;;;;;;;6307933;22;20073;-84
2023/05/16 01:29:42;;;;;;;11.73;1.80;;;;;;;;;;6281896;22;20476;-84
2023/05/16 01:32:08;;;;;;;10.32;1.73;;;;;;;;;;6308791;22;20019;-84
2023/05/16 01:34:34;;;;;;;9.80;1.00;;;;;;;;;;6308773;22;20025;-84
2023/05/16 01:37:07;;;;;;;9.52;0.90;;;;;;;;;;6308684;22;20441;-84
2023/05/16 01:39:33;;;;;;;13.95;1.38;;;;;;;;;;6308777;22;20372;-84
2023/05/16 01:42:10;;;;;;;9.07;1.00;;;;;;;;;;6307962;22;20011;-84
2023/05/16 01:44:41;;;;;;;9.98;1.00;;;;;;;;;;6282475;22;20019;-84
2023/05/16 01:47:13;;;;;;;10.63;1.20;;;;;;;;;;6283457;22;20065;-84
2023/05/16 01:49:43;;;;;;;13.98;1.05;;;;;;;;;;6308106;22;20353;-84
2023/05/16 01:52:12;;;;;;;11.50;1.38;;;;;;;;;;6308199;22;20485;-84
2023/05/16 01:54:42;;;;;;;13.75;1.23;;;;;;;;;;6283629;22;20019;-84
2023/05/16 01:57:08;;;;;;;10.88;1.20;;;;;;;;;;6282032;22;20022;-84
2023/05/16 01:59:35;;;;;;;11.38;1.23;;;;;;;;;;6309666;22;20015;-84
2023/05/16 02:02:02;;;;;;;8.65;1.08;;;;;;;;;;6308200;22;20019;-85
2023/05/16 02:04:28;;;;;;;8.98;1.02;;;;;;;;;;6308486;22;20091;-84
2023/05/16 02:06:54;;;;;;;7.72;0.60;;;;;;;;;;6308067;22;20025;-84
2023/05/16 02:09:20;;;;;;;10.43;0.98;;;;;;;;;;6307912;22;20011;-84
2023/05/16 02:11:46;;;;;;;12.60;1.15;;;;;;;;;;6309025;22;20462;-83
2023/05/16 02:14:12;;;;;;;12.82;1.25;;;;;;;;;;6308968;22;20092;-83
2023/05/16 02:16:38;;;;;;;12.45;0.95;;;;;;;;;;6308023;22;20019;-83
2023/05/16 02:19:05;;;;;;;9.07;0.95;;;;;;;;;;6307888;22;20011;-83
2023/05/16 02:21:31;;;;;;;8.82;0.65;;;;;;;;;;6308892;22;20086;-84
2023/05/16 02:23:57;;;;;;;11.30;1.15;;;;;;;;;;6283290;22;20356;-84
2023/05/16 02:26:23;;;;;;;11.95;1.05;;;;;;;;;;6282585;22;20019;-84
2023/05/16 02:28:49;;;;;;;8.75;0.85;;;;;;;;;;6281978;22;20051;-84
2023/05/16 02:31:25;;;;;;;10.07;1.33;;;;;;;;;;6307816;22;20011;-84
2023/05/16 02:33:51;;;;;;;10.95;1.50;;;;;;;;;;6281598;22;20092;-84
2023/05/16 02:36:17;;;;;;;11.70;1.10;;;;;;;;;;6307775;22;20468;-84
2023/05/16 02:38:43;;;;;;;5.95;0.73;;;;;;;;;;6307698;22;20454;-84
2023/05/16 02:41:09;;;;;;;15.80;1.08;;;;;;;;;;6307201;22;20534;-84
2023/05/16 02:43:35;;;;;;;10.68;1.40;;;;;;;;;;6308030;22;20015;-83
2023/05/16 02:46:04;;;;;;;7.57;0.50;;;;;;;;;;6308055;22;20019;-84
2023/05/16 02:48:30;;;;;;;10.43;0.95;;;;;;;;;;6307162;22;20015;-84
2023/05/16 02:50:57;;;;;;;10.38;1.05;;;;;;;;;;6281807;22;20015;-84
2023/05/16 02:53:23;;;;;;;10.32;0.75;;;;;;;;;;6282097;22;20026;-84
2023/05/16 02:55:49;;;;;;;10.82;1.00;;;;;;;;;;6282935;22;20464;-84
2023/05/16 02:58:15;;;;;;;13.82;1.15;;;;;;;;;;6307062;22;20025;-84
2023/05/16 03:00:41;;;;;;;10.57;0.68;;;;;;;;;;6282238;22;20379;-84
2023/05/16 03:03:07;;;;;;;7.85;1.00;;;;;;;;;;6307714;22;20333;-84
2023/05/16 03:05:33;;;;;;;9.32;0.88;;;;;;;;;;6307589;22;20334;-84
2023/05/16 03:08:00;;;;;;;10.43;1.20;;;;;;;;;;6307418;22;20015;-84
2023/05/16 03:10:26;;;;;;;10.10;1.10;;;;;;;;;;6307392;22;20033;-84
2023/05/16 03:12:52;;;;;;;10.82;1.10;;;;;;;;;;6282038;22;20015;-84
2023/05/16 03:15:18;;;;;;;11.55;1.45;;;;;;;;;;6282671;22;20429;-84
2023/05/16 03:17:44;;;;;;;9.75;0.68;;;;;;;;;;6307424;22;20015;-84
2023/05/16 03:20:11;;;;;;;11.52;1.13;;;;;;;;;;6307327;22;20081;-84
2023/05/16 03:22:37;;;;;;;7.22;0.60;;;;;;;;;;6307676;22;20015;-84
2023/05/16 03:25:03;;;;;;;4.32;0.70;;;;;;;;;;6307076;22;20011;-84
2023/05/16 03:27:29;;;;;;;10.82;1.02;;;;;;;;;;6281619;22;20465;-83
2023/05/16 03:29:55;;;;;;;6.95;1.00;;;;;;;;;;6309483;22;20090;-83
2023/05/16 03:32:21;;;;;;;7.80;0.80;;;;;;;;;;6306928;22;20019;-83
2023/05/16 03:34:47;;;;;;;10.55;0.88;;;;;;;;;;6306876;22;20047;-84
2023/05/16 03:37:14;;;;;;;7.82;1.02;;;;;;;;;;6307237;22;20042;-83
2023/05/16 03:39:40;;;;;;;6.63;0.70;;;;;;;;;;6281637;22;20011;-84
2023/05/16 03:42:07;;;;;;;8.18;0.82;;;;;;;;;;6307188;22;20022;-84
2023/05/16 03:44:33;;;;;;;8.48;1.02;;;;;;;;;;6307198;22;20025;-84
2023/05/16 03:46:59;;;;;;;6.78;0.90;;;;;;;;;;6307443;22;20128;-83
2023/05/16 03:49:29;;;;;;;9.10;0.88;;;;;;;;;;6306858;22;20445;-83
2023/05/16 03:51:55;;;;;;;7.78;0.68;;;;;;;;;;6306860;22;20018;-84
2023/05/16 03:54:21;;;;;;;11.63;1.27;;;;;;;;;;6282026;22;20437;-83
2023/05/16 03:56:47;;;;;;;5.03;0.60;;;;;;;;;;6281737;22;20019;-83
2023/05/16 03:59:14;;;;;;;8.25;0.68;;;;;;;;;;6281347;22;20023;-83
2023/05/16 04:01:40;;;;;;;11.50;1.08;;;;;;;;;;6307928;22;20020;-84
2023/05/16 04:04:06;;;;;;;7.80;0.77;;;;;;;;;;6308011;22;20015;-84
2023/05/16 04:06:33;;;;;;;6.55;0.63;;;;;;;;;;6306846;22;20016;-84
2023/05/16 04:08:59;;;;;;;6.68;0.80;;;;;;;;;;6307084;22;20084;-84
2023/05/16 04:11:25;;;;;;;6.18;0.70;;;;;;;;;;6308494;22;20076;-84
2023/05/16 04:13:52;;;;;;;8.15;0.90;;;;;;;;;;6281187;22;20015;-84
2023/05/16 04:16:18;;;;;;;6.25;0.68;;;;;;;;;;6306784;22;20086;-84
2023/05/16 04:18:45;;;;;;;7.65;0.77;;;;;;;;;;6307849;22;20051;-83
2023/05/16 04:21:14;;;;;;;7.55;0.73;;;;;;;;;;6306748;22;20023;-84
2023/05/16 04:23:40;;;;;;;8.60;0.80;;;;;;;;;;6281250;22;20019;-84
2023/05/16 04:26:06;;;;;;;10.07;0.88;;;;;;;;;;6306709;22;20022;-84
2023/05/16 04:28:32;;;;;;;9.63;0.70;;;;;;;;;;6306568;22;20011;-83
2023/05/16 04:30:59;;;;;;;11.05;1.13;;;;;;;;;;6306744;22;20026;-84
2023/05/16 04:33:25;;;;;;;7.45;1.23;;;;;;;;;;6281465;22;20088;-83
2023/05/16 04:35:51;;;;;;;8.57;0.70;;;;;;;;;;6307399;22;20094;-85
2023/05/16 04:38:18;;;;;;;8.70;0.52;;;;;;;;;;6306676;22;20077;-84
2023/05/16 04:40:44;;;;;;;9.55;1.20;;;;;;;;;;6306729;22;20019;-84
2023/05/16 04:43:10;;;;;;;8.57;0.68;;;;;;;;;;6280918;22;20428;-84
2023/05/16 04:45:36;;;;;;;4.82;0.93;;;;;;;;;;6307777;22;20015;-85
2023/05/16 04:48:02;;;;;;;6.97;0.90;;;;;;;;;;6280449;22;20012;-85
2023/05/16 04:50:28;;;;;;;8.98;1.00;;;;;;;;;;6280890;22;20015;-84
2023/05/16 04:52:55;;;;;;;10.05;1.40;;;;;;;;;;6307657;22;20326;-84
2023/05/16 04:55:21;;;;;;;7.57;0.82;;;;;;;;;;6306495;22;20015;-85
2023/05/16 04:57:47;;;;;;;11.27;1.17;;;;;;;;;;6306326;22;20473;-84
2023/05/16 05:00:13;;;;;;;13.98;0.77;;;;;;;;;;6281166;22;20015;-84
2023/05/16 05:02:39;;;;;;;7.10;0.73;;;;;;;;;;6306555;22;20050;-84
2023/05/16 05:05:05;;;;;;;8.93;0.95;;;;;;;;;;6307663;22;20023;-84
2023/05/16 05:07:32;;;;;;;5.63;0.60;;;;;;;;;;6282613;22;20019;-84
2023/05/16 05:09:58;;;;;;;8.70;1.17;;;;;;;;;;6308972;22;20050;-84
2023/05/16 05:12:26;;;;;;;10.40;0.95;;;;;;;;;;6308621;22;20015;-84
2023/05/16 05:14:52;;;;;;;12.50;1.35;;;;;;;;;;6308612;22;20023;-84
2023/05/16 05:17:19;;;;;;;10.50;0.80;;;;;;;;;;6308615;22;20011;-84
2023/05/16 05:19:46;;;;;;;8.82;0.50;;;;;;;;;;6308508;22;20012;-84
2023/05/16 05:22:12;;;;;;;9.00;1.17;;;;;;;;;;6308492;22;20058;-84
2023/05/16 05:24:38;;;;;;;11.82;1.23;;;;;;;;;;6282596;22;20026;-85
2023/05/16 05:27:04;;;;;;;14.27;0.98;;;;;;;;;;6309503;22;20023;-84
2023/05/16 05:29:30;;;;;;;4.95;0.90;;;;;;;;;;6308243;22;20019;-84
2023/05/16 05:31:57;;;;;;;9.63;0.80;;;;;;;;;;6282756;22;20433;-84
2023/05/16 05:34:23;;;;;;;11.35;0.98;;;;;;;;;;6308392;22;20046;-84
2023/05/16 05:36:49;;;;;;;12.55;1.50;;;;;;;;;;6309882;22;20027;-84
2023/05/16 05:39:15;;;;;;;8.68;0.80;;;;;;;;;;6308383;22;20057;-84
2023/05/16 05:41:42;;;;;;;8.77;1.00;;;;;;;;;;6282357;22;20017;-84
2023/05/16 05:44:08;;;;;;;9.35;1.13;;;;;;;;;;6308266;22;20445;-85
2023/05/16 05:46:34;;;;;;;12.98;0.93;;;;;;;;;;6309281;22;20377;-84
2023/05/16 05:49:00;;;;;;;9.27;0.88;;;;;;;;;;6308971;22;20019;-83
2023/05/16 05:51:27;;;;;;;7.68;0.77;;;;;;;;;;6308515;22;20019;-84
2023/05/16 05:53:54;;;;;;;8.05;1.02;;;;;;;;;;6308244;22;20019;-84
2023/05/16 05:56:20;;;;;;;6.35;0.80;;;;;;;;;;6307885;22;20011;-84
2023/05/16 05:58:46;;;;;;;6.47;1.27;;;;;;;;;;6309018;22;20377;-84
2023/05/16 06:01:13;;;;;;;7.50;0.50;;;;;;;;;;6308207;22;20019;-85
2023/05/16 06:03:39;;;;;;;9.68;0.70;;;;;;;;;;6308059;22;20011;-84
2023/05/16 06:06:05;;;;;;;5.50;0.57;;;;;;;;;;6308046;22;20157;-82
2023/05/16 06:08:31;;;;;;;5.20;0.40;;;;;;;;;;6307973;22;20383;-82
2023/05/16 06:10:57;;;;;;;6.18;0.50;;;;;;;;;;6282219;22;20080;-82
2023/05/16 06:13:23;;;;;;;9.85;0.82;;;;;;;;;;6307961;22;20011;-82
2023/05/16 06:15:50;;;;;;;6.78;0.77;;;;;;;;;;6307831;22;20030;-82
2023/05/16 06:18:16;;;;;;;9.23;0.60;;;;;;;;;;6282150;22;20012;-81
2023/05/16 06:20:42;;;;;;;8.70;0.95;;;;;;;;;;6307777;22;20016;-81
2023/05/16 06:23:09;;;;;;;7.63;0.82;;;;;;;;;;6283126;22;20485;-85
2023/05/16 06:25:35;;;;;;;6.55;0.52;;;;;;;;;;6283304;22;20090;-84
2023/05/16 06:28:01;;;;;;;4.38;0.63;;;;;;;;;;6309332;22;20068;-85
2023/05/16 06:30:27;;;;;;;11.00;0.40;;;;;;;;;;6307801;22;20020;-81
2023/05/16 06:32:53;;;;;;;9.13;0.63;;;;;;;;;;6282124;22;20034;-83
2023/05/16 06:35:19;;;;;;;7.38;0.93;;;;;;;;;;6282040;22;20023;-84
2023/05/16 06:37:45;;;;;;;8.77;0.77;;;;;;;;;;6307778;22;20476;-84
2023/05/16 06:40:12;;;;;;;7.63;0.47;;;;;;;;;;6307768;22;20437;-84
2023/05/16 06:42:38;;;;;;;7.63;0.73;;;;;;;;;;6308004;22;20314;-83
2023/05/16 06:45:04;;;;;;;6.68;0.50;;;;;;;;;;6307637;22;20019;-84
2023/05/16 06:47:30;;;;;;;6.25;1.00;;;;;;;;;;6307454;22;20429;-84
2023/05/16 06:49:56;;;;;;;7.28;0.50;;;;;;;;;;6307594;22;20015;-84
2023/05/16 06:52:22;;;;;;;6.90;0.75;;;;;;;;;;6308589;22;20015;-84
2023/05/16 06:54:48;;;;;;;5.38;0.40;;;;;;;;;;6307874;22;20019;-84
2023/05/16 06:57:15;;;;;;;4.95;0.50;;;;;;;;;;6281393;22;20026;-84
2023/05/16 06:59:41;;;;;;;6.00;0.43;;;;;;;;;;6307472;22;20037;-85
2023/05/16 07:02:07;;;;;;;8.18;0.98;;;;;;;;;;6307804;22;20161;-85
2023/05/16 07:04:36;;;;;;;5.22;0.50;;;;;;;;;;6309662;22;20023;-85
2023/05/16 07:07:02;;;;;;;5.43;0.50;;;;;;;;;;6282606;22;20050;-85
2023/05/16 07:09:29;;;;;;;8.77;0.98;;;;;;;;;;6309867;22;20153;-84
2023/05/16 07:11:55;;;;;;;5.32;0.50;;;;;;;;;;6307703;22;20011;-84
2023/05/16 07:14:21;;;;;;;4.40;0.57;;;;;;;;;;6307463;22;20058;-85
2023/05/16 07:16:47;;;;;;;3.92;0.40;;;;;;;;;;6282568;22;20019;-84
2023/05/16 07:19:13;;;;;;;4.20;0.60;;;;;;;;;;6307223;22;20050;-84
2023/05/16 07:21:39;;;;;;;7.07;0.57;;;;;;;;;;6307184;22;20445;-84
2023/05/16 07:24:05;;;;;;;4.50;0.40;;;;;;;;;;6281976;22;20015;-84
2023/05/16 07:26:32;;;;;;;2.35;0.30;;;;;;;;;;6306894;22;20022;-84
2023/05/16 07:28:58;;;;;;;2.08;0.20;;;;;;;;;;6307167;22;20319;-84
2023/05/16 07:31:24;;;;;;;1.08;0.10;;;;;;;;;;6307215;22;20015;-84
2023/05/16 07:33:50;;;;;;;5.25;0.10;;;;;;;;;;6308081;22;20023;-85
2023/05/16 07:36:16;;;;;;;1.75;0.10;;;;;;;;;;6307207;22;20099;-85
2023/05/16 07:38:42;;;;;;;1.17;0.20;;;;;;;;;;6307444;22;20023;-85
2023/05/16 07:41:08;;;;;;;1.70;0.20;;;;;;;;;;6307446;22;20011;-85
2023/05/16 07:43:35;;;;;;;3.70;0.30;;;;;;;;;;6307073;22;20333;-86
2023/05/16 07:46:02;;;;;;;4.22;0.30;;;;;;;;;;6308036;22;20026;-85
2023/05/16 07:48:28;;;;;;;6.32;0.50;;;;;;;;;;6306963;22;20058;-85
2023/05/16 07:50:57;;;;;;;3.47;0.20;;;;;;;;;;6308026;22;20068;-85
2023/05/16 07:53:23;;;;;;;4.10;0.30;;;;;;;;;;6306994;22;20073;-86
2023/05/16 07:55:49;;;;;;;3.92;0.20;;;;;;;;;;6281106;22;20506;-84
2023/05/16 07:58:15;;;;;;;3.25;0.25;;;;;;;;;;6306646;22;20107;-84
2023/05/16 08:00:41;;;;;;;3.05;0.30;;;;;;;;;;6306879;22;20027;-84
2023/05/16 08:03:08;;;;;;;2.08;0.20;;;;;;;;;;6281258;22;20512;-85
2023/05/16 08:05:34;;;;;;;4.32;0.20;;;;;;;;;;6306740;22;20019;-85
2023/05/16 08:08:00;;;;;;;4.55;0.20;;;;;;;;;;6281439;22;20043;-84
2023/05/16 08:10:26;;;;;;;2.63;0.60;;;;;;;;;;6308418;22;20084;-85
2023/05/16 08:12:52;;;;;;;4.40;0.47;;;;;;;;;;6306797;22;20017;-84
2023/05/16 08:15:18;;;;;;;2.55;0.30;;;;;;;;;;6308295;22;20085;-84
2023/05/16 08:17:44;;;;;;;4.00;0.63;;;;;;;;;;6306762;22;20034;-84
2023/05/16 08:20:11;;;;;;;4.57;0.40;;;;;;;;;;6281879;22;20094;-83
2023/05/16 08:22:37;;;;;;;2.33;0.47;;;;;;;;;;6281088;22;20094;-84
2023/05/16 08:25:09;;;;;;;2.28;0.20;;;;;;;;;;6308251;22;20022;-83
2023/05/16 08:27:35;;;;;;;4.40;0.20;;;;;;;;;;6306992;22;20047;-83
2023/05/16 08:30:01;;;;;;;4.53;0.30;;;;;;;;;;6306626;22;20448;-84
2023/05/16 08:32:28;;;;;;;3.08;0.20;;;;;;;;;;6281126;22;20103;-83
2023/05/16 08:34:54;;;;;;;2.03;0.20;;;;;;;;;;6306277;22;20023;-83
2023/05/16 08:37:20;;;;;;;4.32;0.30;;;;;;;;;;6307601;22;20023;-83
2023/05/16 08:39:46;;;;;;;3.85;0.47;;;;;;;;;;6281485;22;20011;-83
2023/05/16 08:42:12;;;;;;;1.85;0.30;;;;;;;;;;6308194;22;20080;-83
2023/05/16 08:44:38;;;;;;;2.00;0.30;;;;;;;;;;6306543;22;20015;-83
2023/05/16 08:47:12;;;;;;;3.60;0.30;;;;;;;;;;6307552;22;20015;-83
2023/05/16 08:49:43;;;;;;;5.88;0.43;;;;;;;;;;6307403;22;20026;-83
2023/05/16 08:52:10;;;;;;;2.40;0.38;;;;;;;;;;6307009;22;20035;-83
2023/05/16 08:54:36;;;;;;;2.60;0.20;;;;;;;;;;6309072;22;20038;-83
2023/05/16 08:57:03;;;;;;;5.15;0.20;;;;;;;;;;6308466;22;20090;-83
2023/05/16 08:59:30;;;;;;;3.80;0.20;;;;;;;;;;6307599;22;20323;-83
2023/05/16 09:01:56;;;;;;;3.33;0.40;;;;;;;;;;6307474;22;20015;-83
2023/05/16 09:04:24;;;;;;;5.22;0.32;;;;;;;;;;6306762;22;20441;-83
2023/05/16 09:06:50;;;;;;;4.78;0.20;;;;;;;;;;6308375;22;20026;-83
2023/05/16 09:09:16;;;;;;;2.03;0.25;;;;;;;;;;6307374;22;20311;-84
2023/05/16 09:11:42;;;;;;;3.42;0.50;;;;;;;;;;6307516;22;20076;-84
2023/05/16 09:14:08;;;;;;;7.47;0.50;;;;;;;;;;6306473;22;20047;-84
2023/05/16 09:16:34;;;;;;;6.07;0.50;;;;;;;;;;6306428;22;20011;-84
2023/05/16 09:19:01;;;;;;;7.43;0.45;;;;;;;;;;6306371;22;20030;-84
2023/05/16 09:21:28;;;;;;;10.98;0.30;;;;;;;;;;6308496;22;20019;-84
2023/05/16 09:23:54;;;;;;;4.85;0.20;;;;;;;;;;6308064;22;20077;-84
2023/05/16 09:26:21;;;;;;;3.60;0.10;;;;;;;;;;6306770;22;20096;-83
2023/05/16 09:28:47;;;;;;;3.22;0.20;;;;;;;;;;6306347;22;20019;-83
2023/05/16 09:31:25;;;;;;;3.03;0.20;;;;;;;;;;6306529;22;20015;-83
2023/05/16 09:33:58;;;;;;;3.78;0.20;;;;;;;;;;6306329;22;20018;-83
2023/05/16 09:36:25;;;;;;;1.83;0.30;;;;;;;;;;6306316;22;20054;-83
2023/05/16 09:38:51;;;;;;;2.53;0.38;;;;;;;;;;6305932;22;20096;-83
2023/05/16 09:41:17;;;;;;;2.50;0.20;;;;;;;;;;6307919;22;20019;-83
2023/05/16 09:43:44;;;;;;;2.63;0.20;;;;;;;;;;6306607;22;20108;-83
2023/05/16 09:46:18;;;;;;;1.67;0.20;;;;;;;;;;6306288;22;20019;-84
2023/05/16 09:48:45;;;;;;;2.47;0.20;;;;;;;;;;6282016;22;20011;-83
2023/05/16 09:51:12;;;;;;;3.08;0.30;;;;;;;;;;6282290;22;20016;-83
2023/05/16 09:53:38;;;;;;;5.13;0.20;;;;;;;;;;6309505;22;20069;-83
2023/05/16 09:56:06;;;;;;;2.63;0.30;;;;;;;;;;6308473;22;20015;-83
2023/05/16 09:58:33;;;;;;;2.72;0.35;;;;;;;;;;6309576;22;20015;-83
2023/05/16 10:01:00;;;;;;;3.00;0.20;;;;;;;;;;6308317;22;20370;-83
2023/05/16 10:03:26;;;;;;;2.42;0.10;;;;;;;;;;6309601;22;20026;-84
2023/05/16 10:05:53;;;;;;;1.55;0.10;;;;;;;;;;6308368;22;20105;-83
2023/05/16 10:08:23;;;;;;;1.88;0.20;;;;;;;;;;6307933;22;20501;-83
2023/05/16 10:10:53;;;;;;;1.80;0.20;;;;;;;;;;6309557;22;20040;-83
2023/05/16 10:13:21;;;;;;;2.05;0.20;;;;;;;;;;6282193;22;20061;-83
2023/05/16 10:15:48;;;;;;;2.90;0.20;;;;;;;;;;6307971;22;20522;-82
2023/05/16 10:18:14;;;;;;;2.20;0.35;;;;;;;;;;6308042;22;20086;-83
2023/05/16 10:20:41;;;;;;;2.28;0.20;;;;;;;;;;6282172;22;20015;-83
2023/05/16 10:23:08;;;;;;;3.90;0.63;;;;;;;;;;6308203;22;20019;-83
2023/05/16 10:25:43;;;;;;;2.70;0.30;;;;;;;;;;6307861;22;20012;-83
2023/05/16 10:28:09;;;;;;;3.30;0.30;;;;;;;;;;6309873;22;20103;-82
2023/05/16 10:30:36;;;;;;;1.92;0.28;;;;;;;;;;6283233;22;20070;-84
2023/05/16 10:33:03;;;;;;;3.33;0.30;;;;;;;;;;6281921;22;20045;-82
2023/05/16 10:35:31;;;;;;;2.15;0.30;;;;;;;;;;6309292;22;20019;-83
2023/05/16 10:37:58;;;;;;;3.38;0.20;;;;;;;;;;6307750;22;20015;-83
2023/05/16 10:40:24;;;;;;;2.22;0.20;;;;;;;;;;6308739;22;20092;-83
2023/05/16 10:42:57;;;;;;;2.10;0.20;;;;;;;;;;6282865;22;20019;-83
2023/05/16 10:45:23;;;;;;;2.00;0.20;;;;;;;;;;6307748;22;20329;-82
2023/05/16 10:47:55;;;;;;;1.60;0.20;;;;;;;;;;6307853;22;20050;-82
2023/05/16 10:50:32;;;;;;;1.85;0.10;;;;;;;;;;6309056;22;20015;-83
2023/05/16 10:53:10;;;;;;;2.08;0.20;;;;;;;;;;6307593;22;20030;-83
2023/05/16 10:55:38;;;;;;;2.85;0.20;;;;;;;;;;6309515;22;20334;-83
2023/05/16 10:58:04;;;;;;;4.55;0.20;;;;;;;;;;6307000;22;20021;-83
2023/05/16 11:00:30;;;;;;;2.92;0.30;;;;;;;;;;6307502;22;20016;-83
2023/05/16 11:03:06;;;;;;;2.72;0.25;;;;;;;;;;6307031;22;20026;-83
2023/05/16 11:05:33;;;;;;;4.07;0.30;;;;;;;;;;6281806;22;20149;-83
2023/05/16 11:08:03;;;;;;;4.68;0.30;;;;;;;;;;6307732;22;20019;-84
2023/05/16 11:10:29;;;;;;;2.83;0.30;;;;;;;;;;6307487;22;20058;-83
2023/05/16 11:13:02;;;;;;;3.60;0.32;;;;;;;;;;6307360;22;20114;-83
2023/05/16 11:15:30;;;;;;;3.88;0.20;;;;;;;;;;6307213;22;20069;-83
2023/05/16 11:18:05;;;;;;;3.75;0.30;;;;;;;;;;6307378;22;20015;-83
2023/05/16 11:20:32;;;;;;;3.88;0.20;;;;;;;;;;6308264;22;20066;-83
2023/05/16 11:23:16;;;;;;;5.18;0.20;;;;;;;;;;6307577;22;20098;-84
2023/05/16 11:25:44;;;;;;;2.22;0.20;;;;;;;;;;6307093;22;20016;-82
2023/05/16 11:28:12;;;;;;;2.33;0.20;;;;;;;;;;6307001;22;20019;-83
2023/05/16 11:30:42;;;;;;;5.75;0.20;;;;;;;;;;6307099;22;20089;-83
2023/05/16 11:33:08;;;;;;;1.08;0.10;;;;;;;;;;6308242;22;20314;-83
2023/05/16 11:35:35;;;;;;;1.75;0.10;;;;;;;;;;6308204;22;20034;-83
2023/05/16 11:38:01;;;;;;;4.57;0.20;;;;;;;;;;6309505;22;20011;-84
2023/05/16 11:40:27;;;;;;;1.30;0.10;;;;;;;;;;6309391;22;20098;-83
2023/05/16 11:42:54;;;;;;;1.73;0.20;;;;;;;;;;6308103;22;20022;-81
2023/05/16 11:45:23;;;;;;;2.47;0.20;;;;;;;;;;6307047;22;20090;-81
2023/05/16 11:47:49;;;;;;;2.70;0.25;;;;;;;;;;6307232;22;20362;-82
2023/05/16 11:50:17;;;;;;;2.17;0.20;;;;;;;;;;6306902;22;20015;-83
2023/05/16 11:52:43;;;;;;;4.20;0.30;;;;;;;;;;6306926;22;20019;-83
2023/05/16 11:55:10;;;;;;;3.33;0.28;;;;;;;;;;6307627;22;20023;-83
2023/05/16 11:57:43;;;;;;;3.65;0.47;;;;;;;;;;6280644;22;20019;-82
2023/05/16 12:00:16;;;;;;;4.93;0.30;;;;;;;;;;6307994;22;20061;-83
2023/05/16 12:02:43;;;;;;;1.67;0.30;;;;;;;;;;6308509;22;20015;-83
2023/05/16 12:05:09;;;;;;;3.40;0.40;;;;;;;;;;6282041;22;20456;-83
2023/05/16 12:07:36;;;;;;;2.60;0.30;;;;;;;;;;6281948;22;20311;-83
2023/05/16 12:10:06;;;;;;;3.22;0.55;;;;;;;;;;6308326;22;20038;-83
2023/05/16 12:12:33;;;;;;;3.58;0.40;;;;;;;;;;6306783;22;20332;-83
2023/05/16 12:14:59;;;;;;;2.20;0.47;;;;;;;;;;6308295;22;20061;-83
2023/05/16 12:17:25;;;;;;;2.08;0.40;;;;;;;;;;6307010;22;20101;-83
2023/05/16 12:19:52;;;;;;;6.25;0.65;;;;;;;;;;6307674;22;20015;-84
2023/05/16 12:22:19;;;;;;;5.15;0.82;;;;;;;;;;6281199;22;20015;-83
2023/05/16 12:24:45;;;;;;;3.22;0.40;;;;;;;;;;6308284;22;20019;-84
2023/05/16 12:27:11;;;;;;;5.47;0.50;;;;;;;;;;6306925;22;20476;-83
2023/05/16 12:29:37;;;;;;;2.85;0.40;;;;;;;;;;6307609;22;20011;-83
2023/05/16 12:32:07;;;;;;;3.03;0.40;;;;;;;;;;6308195;22;20021;-83
2023/05/16 12:34:33;;;;;;;2.50;0.40;;;;;;;;;;6306620;22;20020;-83
2023/05/16 12:37:00;;;;;;;3.10;0.35;;;;;;;;;;6308258;22;20141;-83
2023/05/16 12:39:26;;;;;;;3.10;0.30;;;;;;;;;;6281214;22;20015;-84
2023/05/16 12:41:52;;;;;;;2.72;0.40;;;;;;;;;;6306488;22;20566;-83
2023/05/16 12:44:19;;;;;;;2.80;0.50;;;;;;;;;;6281227;22;20021;-83
2023/05/16 12:46:47;;;;;;;2.08;0.22;;;;;;;;;;6308099;22;20019;-82
2023/05/16 12:49:13;;;;;;;2.10;0.43;;;;;;;;;;6306438;22;20023;-83
2023/05/16 12:51:40;;;;;;;1.52;0.20;;;;;;;;;;6306556;22;20027;-83
2023/05/16 12:54:10;;;;;;;4.03;0.40;;;;;;;;;;6280692;22;20019;-83
2023/05/16 12:56:39;;;;;;;2.50;0.40;;;;;;;;;;6306111;22;20038;-83
2023/05/16 12:59:06;;;;;;;5.63;0.60;;;;;;;;;;6307272;22;20334;-83
2023/05/16 13:01:32;;;;;;;2.60;0.47;;;;;;;;;;6306578;22;20445;-83
2023/05/16 13:03:58;;;;;;;3.00;0.47;;;;;;;;;;6307992;22;20015;-83
2023/05/16 13:06:25;;;;;;;3.00;0.45;;;;;;;;;;6306855;22;20015;-83
2023/05/16 13:08:51;;;;;;;2.53;0.50;;;;;;;;;;6306303;22;20023;-82
2023/05/16 13:11:17;;;;;;;1.88;0.40;;;;;;;;;;6306104;22;20015;-83
2023/05/16 13:13:44;;;;;;;3.42;0.57;;;;;;;;;;6280647;22;20098;-83
2023/05/16 13:16:10;;;;;;;1.55;0.43;;;;;;;;;;6308226;22;20041;-82
2023/05/16 13:18:36;;;;;;;6.57;0.50;;;;;;;;;;6280604;22;20012;-83
2023/05/16 13:21:03;;;;;;;2.75;0.65;;;;;;;;;;6306659;22;20023;-83
2023/05/16 13:23:29;;;;;;;2.75;0.40;;;;;;;;;;6306013;22;20074;-84
2023/05/16 13:25:56;;;;;;;2.05;0.68;;;;;;;;;;6307661;22;20058;-84
2023/05/16 13:28:22;;;;;;;3.60;0.45;;;;;;;;;;6309278;22;20490;-83
2023/05/16 13:30:48;;;;;;;3.33;0.60;;;;;;;;;;6309377;22;20012;-83
2023/05/16 13:33:14;;;;;;;3.05;0.60;;;;;;;;;;6310609;22;20023;-83
2023/05/16 13:35:40;;;;;;;5.15;0.60;;;;;;;;;;6309848;22;20019;-83
2023/05/16 13:38:06;;;;;;;5.18;0.70;;;;;;;;;;6282536;22;20022;-83
2023/05/16 13:40:32;;;;;;;4.75;0.80;;;;;;;;;;6309794;22;20025;-84
2023/05/16 13:42:59;;;;;;;2.85;0.50;;;;;;;;;;6309369;22;20026;-84
2023/05/16 13:45:26;;;;;;;3.88;0.90;;;;;;;;;;6308540;22;20011;-82
2023/05/16 13:47:52;;;;;;;4.07;0.90;;;;;;;;;;6309014;22;20090;-80
2023/05/16 13:50:18;;;;;;;2.38;0.63;;;;;;;;;;6282395;22;20015;-81
2023/05/16 13:52:46;;;;;;;5.50;0.80;;;;;;;;;;6309416;22;20307;-82
2023/05/16 13:55:12;;;;;;;7.25;0.90;;;;;;;;;;6282833;22;20011;-82
2023/05/16 13:57:38;;;;;;;7.05;1.13;;;;;;;;;;6307505;22;20015;-82
2023/05/16 14:00:11;;;;;;;4.72;0.75;;;;;;;;;;6308451;22;20023;-81
2023/05/16 14:02:38;;;;;;;4.40;0.90;;;;;;;;;;6282598;22;20022;-81
2023/05/16 14:05:04;;;;;;;3.80;1.17;;;;;;;;;;6309612;22;20065;-81
2023/05/16 14:07:30;;;;;;;4.68;0.98;;;;;;;;;;6308042;22;20503;-80
2023/05/16 14:09:56;;;;;;;5.18;0.90;;;;;;;;;;6308052;22;20336;-82
2023/05/16 14:12:22;;;;;;;3.00;0.93;;;;;;;;;;6310173;22;20019;-81
2023/05/16 14:14:49;;;;;;;2.45;0.70;;;;;;;;;;6309526;22;20054;-82
2023/05/16 14:17:15;;;;;;;4.80;0.82;;;;;;;;;;6309034;22;20022;-81
2023/05/16 14:19:41;;;;;;;4.80;1.00;;;;;;;;;;6307794;22;20019;-80
2023/05/16 14:22:07;;;;;;;4.07;1.10;;;;;;;;;;6309467;22;20328;-82
2023/05/16 14:24:33;;;;;;;4.43;1.00;;;;;;;;;;6307830;22;20025;-81
2023/05/16 14:26:59;;;;;;;3.80;0.95;;;;;;;;;;6309368;22;20023;-82
2023/05/16 14:29:26;;;;;;;2.53;0.77;;;;;;;;;;6309233;22;20022;-81
2023/05/16 14:31:52;;;;;;;4.53;1.38;;;;;;;;;;6307748;22;20023;-82
2023/05/16 14:34:18;;;;;;;4.22;1.55;;;;;;;;;;6310274;22;20026;-81
2023/05/16 14:36:44;;;;;;;2.42;1.35;;;;;;;;;;6308635;22;20094;-82
2023/05/16 14:39:11;;;;;;;2.53;1.30;;;;;;;;;;6307766;22;20019;-82